Seattle, WA (98118)

10:33 PM PDT on April 30, 2017 (GMT -0700)
Hillman City | | Change Station

Elev 213 ft 47.55 °N, 122.28 °W | Updated 32 seconds ago

Light Rain
Light Rain
48.2 °F
Feels Like 48 °F
N
1.7
Wind Variable Wind from South

Today
High -- | Low -- °F
--% Chance of Precip.
Yesterday
High -- | Low -- °F
Precip. -- in
Pressure 30.33 in
Visibility 9.0 miles
Clouds Few 2500 ft
Overcast 3300 ft
Windchill 48 °F
Dew Point 47 °F
Humidity 96%
Rainfall 0.05 in
Snow Depth Not available.
5:53 AM 8:20 PM
Waxing Crescent, 29% visible
METAR KBFI 010453Z 10007KT 9SM -RA FEW025 OVC033 10/09 A3033 RMK AO2 RAB49 SLP271 P0000 T01000094 $
Pressure 30.33 in
Visibility 9.0 miles
Clouds Few 2500 ft
Overcast 3300 ft
Windchill 48 °F
Dew Point 47 °F
Humidity 96%
Rainfall 0.05 in
Snow Depth Not available.
5:53 AM 8:20 PM
Waxing Crescent, 29% visible
METAR KBFI 010453Z 10007KT 9SM -RA FEW025 OVC033 10/09 A3033 RMK AO2 RAB49 SLP271 P0000 T01000094 $

Get Severe Weather Alerts

Thanks for signing up!

Be on the lookout for a verification email in your inbox.

You'll start receiving the daily forecast at 8 AM.

×

10-Day Weather Forecast

Almanac

Astronomy

Apr. 30, 2017 Rise Set
Actual Time
Civil Twilight
Nautical Twilight
Astronomical Twilight
Moon
Length of Visible Light
Length of Day
Tomorrow will be .
, % of the Moon is Illuminated

Today's Extremes

State Highs State Lows

Community

WunderPhotos

WunderBlog® & News

Nearby

Air Quality

  Air Quality AQ Index Pollutant
Not available.

Snow Depth

Station Depth Elevation

Earthquake Activity

City Distance Mag. Time & Date
Minimum magnitude displayed is 2.5.

Coastal Water Temperatures

Place Temperature

Stations

Nearby Weather Stations

Station Location Temp. Windchill Dew Point Humidity Wind Precip. Elev Updated Type
                   

Watches & Warnings

There are currently no watches in effect.